aviador You're here:

KOLM Decoded Metar

OLYMPIA in WA, USA
Report Time2018-07-17 00:54:00
UTC Time2018-07-17 01:55:49
Flight Rules vfr VFR
Wind070° at 07 kt
W.Decomp.*RWY 08: 6.1 kt HW 3.4 kt LCW
RWY 35: 3.4 kt HW 6.1 kt RCW
W.Rank070° ranks 24
Current wind is above 070° avg. (5.3)
Visibility9999 m
Phenomena:N/A
Clouds:N/A
Expected CloudBase > 10,000 ft AGL from Temp-Dew spread
CeilingNone
Temp33°C (ISA +18)
Dew Point08°C (21% RH)
Heat Index31.0°C
AAT30.0°C
QNH1014 hPa
Density Alt2,398 ft
Elevation190 ft
Report Wrong Elevation
Raw Report
KOLM 170054Z 07007KT 10SM CLR 33/08 A2995 RMK AO2 SLP139
T03330078=

Extra information for KOLM:More info

Metar Taf Metar & Taf Last 4 Metars F.Rules Stats Wind Profile Meteogram Temp Stats Airport Information Weather charts Add Link Nearby VenuesMetar ALERT Operation Metar Decoded Social comments

AIRNAV info for KOLM